sensor_id;sensor_type;location;lat;lon;timestamp;temperature;humidity
1956;DHT22;978;48.314;11.562;2023-04-06T00:00:07;20.20;54.90
1956;DHT22;978;48.314;11.562;2023-04-06T00:02:36;20.20;54.90
1956;DHT22;978;48.314;11.562;2023-04-06T00:05:03;20.30;55.50
1956;DHT22;978;48.314;11.562;2023-04-06T00:07:30;20.20;54.80
1956;DHT22;978;48.314;11.562;2023-04-06T00:09:58;20.30;54.90
1956;DHT22;978;48.314;11.562;2023-04-06T00:12:25;20.20;54.80
1956;DHT22;978;48.314;11.562;2023-04-06T00:14:52;20.20;54.80
1956;DHT22;978;48.314;11.562;2023-04-06T00:17:19;20.30;55.00
1956;DHT22;978;48.314;11.562;2023-04-06T00:19:47;20.20;54.90
1956;DHT22;978;48.314;11.562;2023-04-06T00:22:14;20.30;55.00
1956;DHT22;978;48.314;11.562;2023-04-06T00:24:41;20.20;54.80
1956;DHT22;978;48.314;11.562;2023-04-06T00:27:08;20.20;54.90
1956;DHT22;978;48.314;11.562;2023-04-06T00:29:34;20.30;55.00
1956;DHT22;978;48.314;11.562;2023-04-06T00:32:02;20.30;55.00
1956;DHT22;978;48.314;11.562;2023-04-06T00:34:29;20.30;55.00
1956;DHT22;978;48.314;11.562;2023-04-06T00:36:57;20.20;54.90
1956;DHT22;978;48.314;11.562;2023-04-06T00:39:24;20.30;55.00
1956;DHT22;978;48.314;11.562;2023-04-06T00:41:51;20.30;54.90
1956;DHT22;978;48.314;11.562;2023-04-06T00:44:18;20.20;54.90
1956;DHT22;978;48.314;11.562;2023-04-06T00:46:45;20.20;54.90
1956;DHT22;978;48.314;11.562;2023-04-06T00:49:12;20.30;55.00
1956;DHT22;978;48.314;11.562;2023-04-06T00:51:39;20.30;55.00
1956;DHT22;978;48.314;11.562;2023-04-06T00:54:07;20.20;54.90
1956;DHT22;978;48.314;11.562;2023-04-06T00:56:35;20.20;54.90
1956;DHT22;978;48.314;11.562;2023-04-06T00:59:02;20.30;55.00
1956;DHT22;978;48.314;11.562;2023-04-06T01:01:29;20.20;55.50
1956;DHT22;978;48.314;11.562;2023-04-06T01:03:58;20.20;54.90
1956;DHT22;978;48.314;11.562;2023-04-06T01:06:24;20.30;55.00
1956;DHT22;978;48.314;11.562;2023-04-06T01:08:51;20.20;55.50
1956;DHT22;978;48.314;11.562;2023-04-06T01:11:20;20.30;55.00
1956;DHT22;978;48.314;11.562;2023-04-06T01:13:47;20.30;55.00
1956;DHT22;978;48.314;11.562;2023-04-06T01:16:13;20.20;54.90
1956;DHT22;978;48.314;11.562;2023-04-06T01:18:41;20.30;55.00
1956;DHT22;978;48.314;11.562;2023-04-06T01:21:08;20.20;54.90
1956;DHT22;978;48.314;11.562;2023-04-06T01:23:42;20.20;54.90
1956;DHT22;978;48.314;11.562;2023-04-06T01:26:09;20.20;54.90
1956;DHT22;978;48.314;11.562;2023-04-06T01:28:36;20.20;55.00
1956;DHT22;978;48.314;11.562;2023-04-06T01:31:04;20.20;54.90
1956;DHT22;978;48.314;11.562;2023-04-06T01:33:31;20.20;54.90
1956;DHT22;978;48.314;11.562;2023-04-06T01:35:58;20.30;55.00
1956;DHT22;978;48.314;11.562;2023-04-06T01:38:25;20.20;54.90
1956;DHT22;978;48.314;11.562;2023-04-06T01:40:53;20.30;55.10
1956;DHT22;978;48.314;11.562;2023-04-06T01:43:20;20.30;55.10
1956;DHT22;978;48.314;11.562;2023-04-06T01:45:47;20.20;54.90
1956;DHT22;978;48.314;11.562;2023-04-06T01:48:14;20.30;55.00
1956;DHT22;978;48.314;11.562;2023-04-06T01:50:41;20.20;54.90
1956;DHT22;978;48.314;11.562;2023-04-06T01:53:07;20.30;55.00
1956;DHT22;978;48.314;11.562;2023-04-06T01:55:34;20.20;54.90
1956;DHT22;978;48.314;11.562;2023-04-06T01:58:02;20.20;54.90
1956;DHT22;978;48.314;11.562;2023-04-06T02:00:29;20.30;55.00
1956;DHT22;978;48.314;11.562;2023-04-06T02:02:56;20.20;54.90
1956;DHT22;978;48.314;11.562;2023-04-06T02:05:23;20.20;54.90
1956;DHT22;978;48.314;11.562;2023-04-06T02:07:50;20.20;55.00
1956;DHT22;978;48.314;11.562;2023-04-06T02:10:17;20.20;55.00
1956;DHT22;978;48.314;11.562;2023-04-06T02:12:44;20.20;54.90
1956;DHT22;978;48.314;11.562;2023-04-06T02:15:12;20.20;54.90
1956;DHT22;978;48.314;11.562;2023-04-06T02:17:40;20.30;55.00
1956;DHT22;978;48.314;11.562;2023-04-06T02:20:07;20.20;54.90
1956;DHT22;978;48.314;11.562;2023-04-06T02:22:35;20.30;55.00
1956;DHT22;978;48.314;11.562;2023-04-06T02:25:02;20.30;55.00
1956;DHT22;978;48.314;11.562;2023-04-06T02:27:28;20.20;55.00
1956;DHT22;978;48.314;11.562;2023-04-06T02:29:55;20.20;54.90
1956;DHT22;978;48.314;11.562;2023-04-06T02:32:24;20.20;55.00
1956;DHT22;978;48.314;11.562;2023-04-06T02:34:51;20.30;55.00
1956;DHT22;978;48.314;11.562;2023-04-06T02:37:18;20.30;55.00
1956;DHT22;978;48.314;11.562;2023-04-06T02:39:45;20.30;55.00
1956;DHT22;978;48.314;11.562;2023-04-06T02:42:11;20.30;55.00
1956;DHT22;978;48.314;11.562;2023-04-06T02:44:40;20.30;55.00
1956;DHT22;978;48.314;11.562;2023-04-06T02:47:07;20.30;55.00
1956;DHT22;978;48.314;11.562;2023-04-06T02:49:35;20.30;55.00
1956;DHT22;978;48.314;11.562;2023-04-06T02:52:02;20.20;55.00
1956;DHT22;978;48.314;11.562;2023-04-06T02:54:29;20.20;55.00
1956;DHT22;978;48.314;11.562;2023-04-06T02:56:56;20.20;54.90
1956;DHT22;978;48.314;11.562;2023-04-06T02:59:23;20.20;55.00
1956;DHT22;978;48.314;11.562;2023-04-06T03:01:50;20.30;55.00
1956;DHT22;978;48.314;11.562;2023-04-06T03:04:16;20.20;54.90
1956;DHT22;978;48.314;11.562;2023-04-06T03:06:45;20.20;55.00
1956;DHT22;978;48.314;11.562;2023-04-06T03:09:12;20.20;54.90
1956;DHT22;978;48.314;11.562;2023-04-06T03:11:39;20.20;54.90
1956;DHT22;978;48.314;11.562;2023-04-06T03:14:06;20.20;54.90
1956;DHT22;978;48.314;11.562;2023-04-06T03:16:33;20.30;55.00
1956;DHT22;978;48.314;11.562;2023-04-06T03:19:00;20.30;55.00
1956;DHT22;978;48.314;11.562;2023-04-06T03:21:26;20.30;55.00
1956;DHT22;978;48.314;11.562;2023-04-06T03:23:55;20.20;54.90
1956;DHT22;978;48.314;11.562;2023-04-06T03:26:21;20.20;55.00
1956;DHT22;978;48.314;11.562;2023-04-06T03:28:48;20.20;54.90
1956;DHT22;978;48.314;11.562;2023-04-06T03:31:15;20.20;54.90
1956;DHT22;978;48.314;11.562;2023-04-06T03:33:42;20.20;54.90
1956;DHT22;978;48.314;11.562;2023-04-06T03:36:09;20.20;54.90
1956;DHT22;978;48.314;11.562;2023-04-06T03:38:36;20.20;55.00
1956;DHT22;978;48.314;11.562;2023-04-06T03:41:04;20.20;55.00
1956;DHT22;978;48.314;11.562;2023-04-06T03:43:31;20.30;55.00
1956;DHT22;978;48.314;11.562;2023-04-06T03:45:58;20.20;55.00
1956;DHT22;978;48.314;11.562;2023-04-06T03:48:25;20.20;54.90
1956;DHT22;978;48.314;11.562;2023-04-06T03:50:52;20.20;54.90
1956;DHT22;978;48.314;11.562;2023-04-06T03:53:18;20.20;54.90
1956;DHT22;978;48.314;11.562;2023-04-06T03:55:45;20.30;55.00
1956;DHT22;978;48.314;11.562;2023-04-06T03:58:13;20.20;55.00
1956;DHT22;978;48.314;11.562;2023-04-06T04:00:40;20.20;55.50
1956;DHT22;978;48.314;11.562;2023-04-06T04:03:07;20.20;54.90
1956;DHT22;978;48.314;11.562;2023-04-06T04:05:34;20.20;54.90
1956;DHT22;978;48.314;11.562;2023-04-06T04:08:00;20.20;54.90
1956;DHT22;978;48.314;11.562;2023-04-06T04:10:27;20.30;55.00
1956;DHT22;978;48.314;11.562;2023-04-06T04:12:54;20.20;55.00
1956;DHT22;978;48.314;11.562;2023-04-06T04:15:22;20.20;54.90
1956;DHT22;978;48.314;11.562;2023-04-06T04:17:49;20.30;55.00
1956;DHT22;978;48.314;11.562;2023-04-06T04:20:16;20.30;55.60
1956;DHT22;978;48.314;11.562;2023-04-06T04:22:43;20.20;54.90
1956;DHT22;978;48.314;11.562;2023-04-06T04:25:10;20.20;54.90
1956;DHT22;978;48.314;11.562;2023-04-06T04:27:37;20.20;55.00
1956;DHT22;978;48.314;11.562;2023-04-06T04:30:04;20.20;54.90
1956;DHT22;978;48.314;11.562;2023-04-06T04:32:33;20.30;55.00
1956;DHT22;978;48.314;11.562;2023-04-06T04:35:00;20.20;54.90
1956;DHT22;978;48.314;11.562;2023-04-06T04:37:26;20.20;54.90
1956;DHT22;978;48.314;11.562;2023-04-06T04:39:53;20.20;54.90
1956;DHT22;978;48.314;11.562;2023-04-06T04:42:20;20.20;55.00
1956;DHT22;978;48.314;11.562;2023-04-06T04:44:47;20.20;54.90
1956;DHT22;978;48.314;11.562;2023-04-06T04:47:14;20.30;55.00
1956;DHT22;978;48.314;11.562;2023-04-06T04:49:42;20.30;55.60
1956;DHT22;978;48.314;11.562;2023-04-06T04:52:09;20.20;54.90
1956;DHT22;978;48.314;11.562;2023-04-06T04:54:35;20.20;55.00
1956;DHT22;978;48.314;11.562;2023-04-06T04:57:03;20.30;55.00
1956;DHT22;978;48.314;11.562;2023-04-06T04:59:30;20.20;54.90
1956;DHT22;978;48.314;11.562;2023-04-06T05:01:56;20.20;55.00
1956;DHT22;978;48.314;11.562;2023-04-06T05:04:23;20.20;54.90
1956;DHT22;978;48.314;11.562;2023-04-06T05:07:02;20.20;54.90
1956;DHT22;978;48.314;11.562;2023-04-06T05:09:29;20.20;54.90
1956;DHT22;978;48.314;11.562;2023-04-06T05:11:56;20.20;55.50
1956;DHT22;978;48.314;11.562;2023-04-06T05:14:23;20.20;54.90
1956;DHT22;978;48.314;11.562;2023-04-06T05:16:50;20.20;55.00
1956;DHT22;978;48.314;11.562;2023-04-06T05:19:17;20.20;55.50
1956;DHT22;978;48.314;11.562;2023-04-06T05:21:44;20.20;54.90
1956;DHT22;978;48.314;11.562;2023-04-06T05:24:12;20.30;55.00
1956;DHT22;978;48.314;11.562;2023-04-06T05:26:39;20.30;55.00
1956;DHT22;978;48.314;11.562;2023-04-06T05:29:06;20.20;54.90
1956;DHT22;978;48.314;11.562;2023-04-06T05:31:33;20.20;54.90
1956;DHT22;978;48.314;11.562;2023-04-06T05:34:00;20.20;54.90
1956;DHT22;978;48.314;11.562;2023-04-06T05:36:26;20.30;55.00
1956;DHT22;978;48.314;11.562;2023-04-06T05:38:53;20.20;54.90
1956;DHT22;978;48.314;11.562;2023-04-06T05:41:23;20.20;54.90
1956;DHT22;978;48.314;11.562;2023-04-06T05:43:50;20.30;55.00
1956;DHT22;978;48.314;11.562;2023-04-06T05:46:16;20.20;54.90
1956;DHT22;978;48.314;11.562;2023-04-06T05:48:43;20.20;54.90
1956;DHT22;978;48.314;11.562;2023-04-06T05:51:10;20.20;54.90
1956;DHT22;978;48.314;11.562;2023-04-06T05:53:37;20.20;55.00
1956;DHT22;978;48.314;11.562;2023-04-06T05:56:05;20.20;54.90
1956;DHT22;978;48.314;11.562;2023-04-06T05:58:33;20.20;55.00
1956;DHT22;978;48.314;11.562;2023-04-06T06:01:00;20.20;54.90
1956;DHT22;978;48.314;11.562;2023-04-06T06:03:28;20.20;55.00
1956;DHT22;978;48.314;11.562;2023-04-06T06:05:59;20.20;54.90
1956;DHT22;978;48.314;11.562;2023-04-06T06:08:27;20.20;54.90
1956;DHT22;978;48.314;11.562;2023-04-06T06:10:53;20.20;55.00
1956;DHT22;978;48.314;11.562;2023-04-06T06:13:20;20.20;54.90
1956;DHT22;978;48.314;11.562;2023-04-06T06:15:48;20.20;55.00
1956;DHT22;978;48.314;11.562;2023-04-06T06:18:15;20.20;55.00
1956;DHT22;978;48.314;11.562;2023-04-06T06:20:42;20.20;55.00
1956;DHT22;978;48.314;11.562;2023-04-06T06:23:09;20.30;55.10
1956;DHT22;978;48.314;11.562;2023-04-06T06:25:36;20.20;55.00
1956;DHT22;978;48.314;11.562;2023-04-06T06:28:03;20.20;55.00
1956;DHT22;978;48.314;11.562;2023-04-06T06:30:30;20.30;55.00
1956;DHT22;978;48.314;11.562;2023-04-06T06:32:58;20.30;55.00
1956;DHT22;978;48.314;11.562;2023-04-06T06:35:25;20.30;55.50
1956;DHT22;978;48.314;11.562;2023-04-06T06:37:51;20.30;54.90
1956;DHT22;978;48.314;11.562;2023-04-06T06:40:18;20.20;54.70
1956;DHT22;978;48.314;11.562;2023-04-06T06:42:49;20.30;54.70
1956;DHT22;978;48.314;11.562;2023-04-06T06:45:16;20.20;54.60
1956;DHT22;978;48.314;11.562;2023-04-06T06:47:43;20.20;54.60
1956;DHT22;978;48.314;11.562;2023-04-06T06:50:11;20.30;54.50
1956;DHT22;978;48.314;11.562;2023-04-06T06:52:39;20.20;54.50
1956;DHT22;978;48.314;11.562;2023-04-06T06:55:08;20.30;54.50
1956;DHT22;978;48.314;11.562;2023-04-06T06:57:35;20.30;54.40
1956;DHT22;978;48.314;11.562;2023-04-06T07:00:02;20.30;54.40
1956;DHT22;978;48.314;11.562;2023-04-06T07:02:30;20.30;54.40
1956;DHT22;978;48.314;11.562;2023-04-06T07:04:57;20.20;54.30
1956;DHT22;978;48.314;11.562;2023-04-06T07:07:25;20.20;54.30
1956;DHT22;978;48.314;11.562;2023-04-06T07:09:52;20.30;54.30
1956;DHT22;978;48.314;11.562;2023-04-06T07:12:19;20.20;54.30
1956;DHT22;978;48.314;11.562;2023-04-06T07:14:46;20.20;54.30
1956;DHT22;978;48.314;11.562;2023-04-06T07:17:13;20.20;54.20
1956;DHT22;978;48.314;11.562;2023-04-06T07:19:39;20.30;54.20
1956;DHT22;978;48.314;11.562;2023-04-06T07:22:07;20.20;54.10
1956;DHT22;978;48.314;11.562;2023-04-06T07:24:35;20.20;54.20
1956;DHT22;978;48.314;11.562;2023-04-06T07:27:02;20.30;54.20
1956;DHT22;978;48.314;11.562;2023-04-06T07:29:29;20.20;54.10
1956;DHT22;978;48.314;11.562;2023-04-06T07:31:56;20.20;54.10
1956;DHT22;978;48.314;11.562;2023-04-06T07:34:22;20.20;54.10
1956;DHT22;978;48.314;11.562;2023-04-06T07:36:49;20.20;54.10
1956;DHT22;978;48.314;11.562;2023-04-06T07:39:18;20.30;54.20
1956;DHT22;978;48.314;11.562;2023-04-06T07:41:46;20.20;54.00
1956;DHT22;978;48.314;11.562;2023-04-06T07:44:13;20.20;54.10
1956;DHT22;978;48.314;11.562;2023-04-06T07:46:40;20.20;54.00
1956;DHT22;978;48.314;11.562;2023-04-06T07:49:07;20.20;54.10
1956;DHT22;978;48.314;11.562;2023-04-06T07:51:36;20.20;54.00
1956;DHT22;978;48.314;11.562;2023-04-06T07:54:03;20.20;54.00
1956;DHT22;978;48.314;11.562;2023-04-06T07:56:29;20.20;54.00
1956;DHT22;978;48.314;11.562;2023-04-06T07:58:58;20.20;54.10
1956;DHT22;978;48.314;11.562;2023-04-06T08:01:25;20.20;54.10
1956;DHT22;978;48.314;11.562;2023-04-06T08:03:51;20.20;54.10
1956;DHT22;978;48.314;11.562;2023-04-06T08:06:21;20.20;54.10
1956;DHT22;978;48.314;11.562;2023-04-06T08:08:48;20.30;54.10
1956;DHT22;978;48.314;11.562;2023-04-06T08:11:14;20.30;54.10
1956;DHT22;978;48.314;11.562;2023-04-06T08:13:41;20.30;54.10
1956;DHT22;978;48.314;11.562;2023-04-06T08:16:09;20.30;54.10
1956;DHT22;978;48.314;11.562;2023-04-06T08:18:36;20.20;54.00
1956;DHT22;978;48.314;11.562;2023-04-06T08:21:03;20.20;54.00
1956;DHT22;978;48.314;11.562;2023-04-06T08:23:30;20.20;54.00
1956;DHT22;978;48.314;11.562;2023-04-06T08:25:57;20.20;53.90
1956;DHT22;978;48.314;11.562;2023-04-06T08:28:24;20.20;54.00
1956;DHT22;978;48.314;11.562;2023-04-06T08:30:51;20.20;54.00
1956;DHT22;978;48.314;11.562;2023-04-06T08:33:19;20.20;54.10
1956;DHT22;978;48.314;11.562;2023-04-06T08:35:45;20.20;54.10
1956;DHT22;978;48.314;11.562;2023-04-06T08:38:12;20.20;54.10
1956;DHT22;978;48.314;11.562;2023-04-06T08:40:39;20.20;54.10
1956;DHT22;978;48.314;11.562;2023-04-06T08:43:14;20.20;54.10
1956;DHT22;978;48.314;11.562;2023-04-06T08:45:41;20.20;54.10
1956;DHT22;978;48.314;11.562;2023-04-06T08:48:09;20.30;54.20
1956;DHT22;978;48.314;11.562;2023-04-06T08:50:38;20.20;54.20
1956;DHT22;978;48.314;11.562;2023-04-06T08:53:06;20.20;54.20
1956;DHT22;978;48.314;11.562;2023-04-06T08:55:34;20.20;54.20
1956;DHT22;978;48.314;11.562;2023-04-06T08:58:01;20.20;54.30
1956;DHT22;978;48.314;11.562;2023-04-06T09:00:29;20.20;54.20
1956;DHT22;978;48.314;11.562;2023-04-06T09:02:57;20.20;54.30
1956;DHT22;978;48.314;11.562;2023-04-06T09:05:25;20.20;54.30
1956;DHT22;978;48.314;11.562;2023-04-06T09:07:54;20.20;54.80
1956;DHT22;978;48.314;11.562;2023-04-06T09:10:21;20.20;54.30
1956;DHT22;978;48.314;11.562;2023-04-06T09:12:50;20.20;54.30
1956;DHT22;978;48.314;11.562;2023-04-06T09:15:18;20.20;54.30
1956;DHT22;978;48.314;11.562;2023-04-06T09:17:45;20.20;54.30
1956;DHT22;978;48.314;11.562;2023-04-06T09:20:12;20.20;54.30
1956;DHT22;978;48.314;11.562;2023-04-06T09:22:40;20.20;54.30
1956;DHT22;978;48.314;11.562;2023-04-06T09:25:17;20.20;54.30
1956;DHT22;978;48.314;11.562;2023-04-06T09:27:45;20.20;54.30
1956;DHT22;978;48.314;11.562;2023-04-06T09:30:12;20.20;54.40
1956;DHT22;978;48.314;11.562;2023-04-06T09:32:48;20.20;54.30
1956;DHT22;978;48.314;11.562;2023-04-06T09:35:16;20.20;54.30
1956;DHT22;978;48.314;11.562;2023-04-06T09:37:43;20.20;54.30
1956;DHT22;978;48.314;11.562;2023-04-06T09:40:12;20.20;54.40
1956;DHT22;978;48.314;11.562;2023-04-06T09:42:41;20.20;54.40
1956;DHT22;978;48.314;11.562;2023-04-06T09:45:09;20.20;54.40
1956;DHT22;978;48.314;11.562;2023-04-06T09:47:36;20.20;54.40
1956;DHT22;978;48.314;11.562;2023-04-06T09:50:07;20.30;54.40
1956;DHT22;978;48.314;11.562;2023-04-06T09:52:37;20.20;54.30
1956;DHT22;978;48.314;11.562;2023-04-06T09:55:05;20.20;54.20
1956;DHT22;978;48.314;11.562;2023-04-06T09:57:40;20.30;54.20
1956;DHT22;978;48.314;11.562;2023-04-06T10:00:10;20.30;54.70
1956;DHT22;978;48.314;11.562;2023-04-06T10:02:45;20.20;54.00
1956;DHT22;978;48.314;11.562;2023-04-06T10:05:19;20.20;53.90
1956;DHT22;978;48.314;11.562;2023-04-06T10:07:48;20.20;53.90
1956;DHT22;978;48.314;11.562;2023-04-06T10:10:17;20.30;53.80
1956;DHT22;978;48.314;11.562;2023-04-06T10:12:47;20.20;53.80
1956;DHT22;978;48.314;11.562;2023-04-06T10:15:15;20.20;53.70
1956;DHT22;978;48.314;11.562;2023-04-06T10:17:42;20.30;53.80
1956;DHT22;978;48.314;11.562;2023-04-06T10:20:12;20.20;53.60
1956;DHT22;978;48.314;11.562;2023-04-06T10:22:48;20.20;53.70
1956;DHT22;978;48.314;11.562;2023-04-06T10:25:26;20.20;53.60
1956;DHT22;978;48.314;11.562;2023-04-06T10:28:00;20.20;53.70
1956;DHT22;978;48.314;11.562;2023-04-06T10:30:28;20.20;53.50
1956;DHT22;978;48.314;11.562;2023-04-06T10:32:55;20.20;53.50
1956;DHT22;978;48.314;11.562;2023-04-06T10:35:22;20.20;53.60
1956;DHT22;978;48.314;11.562;2023-04-06T10:37:51;20.20;53.70
1956;DHT22;978;48.314;11.562;2023-04-06T10:40:19;20.20;53.70
1956;DHT22;978;48.314;11.562;2023-04-06T10:42:46;20.20;53.80
1956;DHT22;978;48.314;11.562;2023-04-06T10:45:24;20.20;53.90
1956;DHT22;978;48.314;11.562;2023-04-06T10:47:52;20.20;54.00
1956;DHT22;978;48.314;11.562;2023-04-06T10:50:20;20.20;54.00
1956;DHT22;978;48.314;11.562;2023-04-06T10:52:47;20.20;54.10
1956;DHT22;978;48.314;11.562;2023-04-06T10:55:15;20.20;54.10
1956;DHT22;978;48.314;11.562;2023-04-06T10:57:42;20.20;54.20
1956;DHT22;978;48.314;11.562;2023-04-06T11:00:11;20.20;54.30
1956;DHT22;978;48.314;11.562;2023-04-06T11:02:39;20.20;54.30
1956;DHT22;978;48.314;11.562;2023-04-06T11:05:07;20.20;54.30
1956;DHT22;978;48.314;11.562;2023-04-06T11:07:34;20.20;54.20
1956;DHT22;978;48.314;11.562;2023-04-06T11:10:01;20.20;54.10
1956;DHT22;978;48.314;11.562;2023-04-06T11:12:28;20.20;54.10
1956;DHT22;978;48.314;11.562;2023-04-06T11:14:57;20.20;54.10
1956;DHT22;978;48.314;11.562;2023-04-06T11:17:29;20.30;53.90
1956;DHT22;978;48.314;11.562;2023-04-06T11:19:58;20.20;53.70
1956;DHT22;978;48.314;11.562;2023-04-06T11:22:25;20.20;53.80
1956;DHT22;978;48.314;11.562;2023-04-06T11:24:52;20.20;53.80
1956;DHT22;978;48.314;11.562;2023-04-06T11:27:19;20.20;53.90
1956;DHT22;978;48.314;11.562;2023-04-06T11:29:47;20.20;53.90
1956;DHT22;978;48.314;11.562;2023-04-06T11:32:21;20.20;54.00
1956;DHT22;978;48.314;11.562;2023-04-06T11:34:49;20.20;54.10
1956;DHT22;978;48.314;11.562;2023-04-06T11:37:17;20.20;54.20
1956;DHT22;978;48.314;11.562;2023-04-06T11:39:47;20.20;54.20
1956;DHT22;978;48.314;11.562;2023-04-06T11:42:21;20.20;54.30
1956;DHT22;978;48.314;11.562;2023-04-06T11:44:50;20.20;54.40
1956;DHT22;978;48.314;11.562;2023-04-06T11:47:18;20.20;54.50
1956;DHT22;978;48.314;11.562;2023-04-06T11:49:45;20.20;54.50
1956;DHT22;978;48.314;11.562;2023-04-06T11:52:18;20.20;54.60
1956;DHT22;978;48.314;11.562;2023-04-06T11:54:46;20.20;54.70
1956;DHT22;978;48.314;11.562;2023-04-06T11:57:13;20.20;54.80
1956;DHT22;978;48.314;11.562;2023-04-06T11:59:42;20.20;54.80
1956;DHT22;978;48.314;11.562;2023-04-06T12:02:09;20.20;54.90
1956;DHT22;978;48.314;11.562;2023-04-06T12:04:36;20.20;54.90
1956;DHT22;978;48.314;11.562;2023-04-06T12:07:03;20.20;55.00
1956;DHT22;978;48.314;11.562;2023-04-06T12:09:32;20.20;55.10
1956;DHT22;978;48.314;11.562;2023-04-06T12:12:00;20.20;55.10
1956;DHT22;978;48.314;11.562;2023-04-06T12:14:27;20.20;55.20
1956;DHT22;978;48.314;11.562;2023-04-06T12:16:53;20.20;55.30
1956;DHT22;978;48.314;11.562;2023-04-06T12:19:20;20.20;55.30
1956;DHT22;978;48.314;11.562;2023-04-06T12:21:51;20.20;55.40
1956;DHT22;978;48.314;11.562;2023-04-06T12:24:17;20.20;55.40
1956;DHT22;978;48.314;11.562;2023-04-06T12:26:46;20.20;55.50
1956;DHT22;978;48.314;11.562;2023-04-06T12:29:13;20.20;55.50
1956;DHT22;978;48.314;11.562;2023-04-06T12:31:40;20.30;55.60
1956;DHT22;978;48.314;11.562;2023-04-06T12:34:08;20.20;55.60
1956;DHT22;978;48.314;11.562;2023-04-06T12:36:36;20.20;55.70
1956;DHT22;978;48.314;11.562;2023-04-06T12:39:03;20.20;55.70
1956;DHT22;978;48.314;11.562;2023-04-06T12:41:30;20.20;55.90
1956;DHT22;978;48.314;11.562;2023-04-06T12:43:59;20.30;55.90
1956;DHT22;978;48.314;11.562;2023-04-06T12:46:26;20.30;55.90
1956;DHT22;978;48.314;11.562;2023-04-06T12:48:55;20.30;55.90
1956;DHT22;978;48.314;11.562;2023-04-06T12:51:24;20.30;56.00
1956;DHT22;978;48.314;11.562;2023-04-06T12:53:51;20.30;56.00
1956;DHT22;978;48.314;11.562;2023-04-06T12:56:18;20.30;56.10
1956;DHT22;978;48.314;11.562;2023-04-06T12:58:46;20.30;56.10
1956;DHT22;978;48.314;11.562;2023-04-06T13:01:15;20.30;56.10
1956;DHT22;978;48.314;11.562;2023-04-06T13:03:42;20.30;56.70
1956;DHT22;978;48.314;11.562;2023-04-06T13:06:09;20.30;56.20
1956;DHT22;978;48.314;11.562;2023-04-06T13:08:36;20.30;56.20
1956;DHT22;978;48.314;11.562;2023-04-06T13:11:04;20.30;56.20
1956;DHT22;978;48.314;11.562;2023-04-06T13:13:33;20.30;56.30
1956;DHT22;978;48.314;11.562;2023-04-06T13:16:02;20.30;56.30
1956;DHT22;978;48.314;11.562;2023-04-06T13:18:31;20.30;56.30
1956;DHT22;978;48.314;11.562;2023-04-06T13:20:59;20.30;56.30
1956;DHT22;978;48.314;11.562;2023-04-06T13:23:26;20.30;56.40
1956;DHT22;978;48.314;11.562;2023-04-06T13:26:00;20.30;56.40
1956;DHT22;978;48.314;11.562;2023-04-06T13:28:27;20.30;56.50
1956;DHT22;978;48.314;11.562;2023-04-06T13:30:54;20.30;56.50
1956;DHT22;978;48.314;11.562;2023-04-06T13:33:21;20.30;56.50
1956;DHT22;978;48.314;11.562;2023-04-06T13:35:50;20.30;56.50
1956;DHT22;978;48.314;11.562;2023-04-06T13:38:16;20.30;56.60
1956;DHT22;978;48.314;11.562;2023-04-06T13:40:43;20.30;56.60
1956;DHT22;978;48.314;11.562;2023-04-06T13:43:10;20.30;56.60
1956;DHT22;978;48.314;11.562;2023-04-06T13:45:37;20.30;57.20
1956;DHT22;978;48.314;11.562;2023-04-06T13:48:05;20.30;56.70
1956;DHT22;978;48.314;11.562;2023-04-06T13:50:32;20.30;56.70
1956;DHT22;978;48.314;11.562;2023-04-06T13:53:00;20.30;56.70
1956;DHT22;978;48.314;11.562;2023-04-06T13:55:27;20.30;56.80
1956;DHT22;978;48.314;11.562;2023-04-06T13:57:55;20.30;56.80
1956;DHT22;978;48.314;11.562;2023-04-06T14:00:21;20.30;56.80
1956;DHT22;978;48.314;11.562;2023-04-06T14:02:49;20.30;56.70
1956;DHT22;978;48.314;11.562;2023-04-06T14:05:16;20.30;56.60
1956;DHT22;978;48.314;11.562;2023-04-06T14:07:43;20.30;56.50
1956;DHT22;978;48.314;11.562;2023-04-06T14:10:11;20.30;56.40
1956;DHT22;978;48.314;11.562;2023-04-06T14:12:40;20.30;56.30
1956;DHT22;978;48.314;11.562;2023-04-06T14:15:08;20.30;56.30
1956;DHT22;978;48.314;11.562;2023-04-06T14:17:35;20.30;56.20
1956;DHT22;978;48.314;11.562;2023-04-06T14:20:02;20.30;56.10
1956;DHT22;978;48.314;11.562;2023-04-06T14:22:29;20.30;55.90
1956;DHT22;978;48.314;11.562;2023-04-06T14:24:55;20.30;55.90
1956;DHT22;978;48.314;11.562;2023-04-06T14:27:23;20.30;55.70
1956;DHT22;978;48.314;11.562;2023-04-06T14:29:50;20.30;55.70
1956;DHT22;978;48.314;11.562;2023-04-06T14:32:19;20.30;55.60
1956;DHT22;978;48.314;11.562;2023-04-06T14:34:46;20.30;55.50
1956;DHT22;978;48.314;11.562;2023-04-06T14:37:13;20.30;55.60
1956;DHT22;978;48.314;11.562;2023-04-06T14:39:40;20.30;55.50
1956;DHT22;978;48.314;11.562;2023-04-06T14:42:06;20.30;55.50
1956;DHT22;978;48.314;11.562;2023-04-06T14:44:34;20.30;55.40
1956;DHT22;978;48.314;11.562;2023-04-06T14:47:02;20.30;55.40
1956;DHT22;978;48.314;11.562;2023-04-06T14:49:29;20.30;55.40
1956;DHT22;978;48.314;11.562;2023-04-06T14:51:56;20.30;55.20
1956;DHT22;978;48.314;11.562;2023-04-06T14:54:24;20.30;55.10
1956;DHT22;978;48.314;11.562;2023-04-06T14:56:50;20.30;55.10
1956;DHT22;978;48.314;11.562;2023-04-06T14:59:17;20.30;55.00
1956;DHT22;978;48.314;11.562;2023-04-06T15:01:45;20.30;55.00
1956;DHT22;978;48.314;11.562;2023-04-06T15:04:12;20.30;55.00
1956;DHT22;978;48.314;11.562;2023-04-06T15:06:39;20.30;54.90
1956;DHT22;978;48.314;11.562;2023-04-06T15:09:06;20.30;54.80
1956;DHT22;978;48.314;11.562;2023-04-06T15:11:33;20.30;54.70
1956;DHT22;978;48.314;11.562;2023-04-06T15:14:00;20.30;54.70
1956;DHT22;978;48.314;11.562;2023-04-06T15:16:27;20.30;54.60
1956;DHT22;978;48.314;11.562;2023-04-06T15:18:58;20.30;54.50
1956;DHT22;978;48.314;11.562;2023-04-06T15:21:25;20.30;54.50
1956;DHT22;978;48.314;11.562;2023-04-06T15:23:52;20.30;54.40
1956;DHT22;978;48.314;11.562;2023-04-06T15:26:19;20.30;54.30
1956;DHT22;978;48.314;11.562;2023-04-06T15:28:46;20.30;54.30
1956;DHT22;978;48.314;11.562;2023-04-06T15:31:14;20.30;54.30
1956;DHT22;978;48.314;11.562;2023-04-06T15:33:41;20.30;54.20
1956;DHT22;978;48.314;11.562;2023-04-06T15:36:21;20.30;54.20
1956;DHT22;978;48.314;11.562;2023-04-06T15:38:48;20.30;54.20
1956;DHT22;978;48.314;11.562;2023-04-06T15:41:15;20.30;54.20
1956;DHT22;978;48.314;11.562;2023-04-06T15:43:42;20.30;54.00
1956;DHT22;978;48.314;11.562;2023-04-06T15:46:08;20.30;54.00
1956;DHT22;978;48.314;11.562;2023-04-06T15:48:35;20.30;54.00
1956;DHT22;978;48.314;11.562;2023-04-06T15:51:02;20.30;54.00
1956;DHT22;978;48.314;11.562;2023-04-06T15:53:31;20.30;54.00
1956;DHT22;978;48.314;11.562;2023-04-06T15:55:59;20.30;53.90
1956;DHT22;978;48.314;11.562;2023-04-06T15:58:26;20.30;54.00
1956;DHT22;978;48.314;11.562;2023-04-06T16:00:53;20.30;54.00
1956;DHT22;978;48.314;11.562;2023-04-06T16:03:20;20.30;54.00